Kill Devil Hills, NC

12:22 PM EDT on August 16, 2017 (GMT -0400)
First Flight

Weather History for KFFA - February, 2013

Change the Weather History Date:

Thursday, February 14, 2013

  Actual Average (KMQI) Record (KMQI)
Temperature  
Mean Temperature 42 °F -  
Max Temperature 47 °F 50 °F 74 °F (1990)
Min Temperature 36 °F 37 °F 17 °F (2015)
Degree Days  
Heating Degree Days 24    
Moisture  
Dew Point 35 °F    
Average Humidity 79    
Maximum Humidity 90    
Minimum Humidity 64    
Precipitation  
Precipitation 0.00 in - - ()
Sea Level Pressure  
Sea Level Pressure 29.97 in    
Wind  
Wind Speed 6 mph (NNW)    
Max Wind Speed 13 mph    
Max Gust Speed 24 mph    
Visibility 10 miles    
Events      
Averages and records for this station are not official NWS values.
T = Trace of Precipitation, MM = Missing Value Source: NWS Daily Summary

Daily Weather History Graph

Daily Weather History Graph

Search for Another Location

Airport or City:

Trip Planner

Search our weather history database for the weather conditions in past years. The results will help you decide how hot, cold, wet, or windy it might be!

Date:

Astronomy

Feb. 14, 2013 Rise Set
Actual Time 6:50 AM EST 5:43 PM EST
Civil Twilight 6:24 AM EST 6:09 PM EST
Nautical Twilight 5:54 AM EST 6:39 PM EST
Astronomical Twilight 5:24 AM EST 7:09 PM EST
Moon 9:01 AM EST (2/14) 10:32 PM EST (2/14)
Length of Visible Light 11h 45m
Length of Day
10h 52m
Waxing Crescent, 21% of the Moon is Illuminated
Feb 14
Waxing Crescent
Feb 17
First Quarter
Feb 25
Full
Mar 4
Last Quarter
Mar 11
New

Hourly Weather History & Observations

Time (EST) Temp. Windchill Dew Point Humidity Pressure Visibility Wind Dir Wind Speed Gust Speed Precip Events Conditions
12:15 AM 47.3 °F - 43.7 °F 87% 29.72 in 10.0 mi West 9.2 mph - N/A   Overcast
12:35 AM 47.1 °F - 43.9 °F 88% 29.74 in 10.0 mi West 8.1 mph - N/A   Overcast
12:55 AM 46.8 °F - 43.7 °F 89% 29.74 in 10.0 mi West 6.9 mph - N/A   Scattered Clouds
1:15 AM 46.8 °F - 43.9 °F 90% 29.76 in 10.0 mi West 6.9 mph - N/A   Mostly Cloudy
1:35 AM 46.9 °F - 43.7 °F 88% 29.76 in 10.0 mi West 9.2 mph - N/A   Overcast
1:55 AM 46.9 °F - 43.7 °F 88% 29.76 in 10.0 mi West 6.9 mph - N/A   Overcast
2:15 AM 46.6 °F - 43.0 °F 87% 29.78 in 10.0 mi NW 12.7 mph 18.4 mph N/A   Overcast
2:35 AM 45.7 °F 40.6 °F 40.1 °F 81% 29.78 in 10.0 mi NW 10.4 mph 24.2 mph N/A   Mostly Cloudy
2:55 AM 44.6 °F 39.2 °F 39.7 °F 83% 29.79 in 10.0 mi NW 10.4 mph 20.7 mph N/A   Mostly Cloudy
3:15 AM 44.1 °F 37.7 °F 39.0 °F 82% 29.81 in 10.0 mi NW 12.7 mph 19.6 mph N/A   Overcast
3:35 AM 43.0 °F 38.8 °F 36.7 °F 78% 29.82 in 10.0 mi NW 6.9 mph 19.6 mph N/A   Overcast
3:55 AM 42.6 °F 38.4 °F 35.6 °F 76% 29.83 in 10.0 mi NW 6.9 mph - N/A   Overcast
4:15 AM 42.3 °F 36.3 °F 35.6 °F 77% 29.85 in 10.0 mi NW 10.4 mph 16.1 mph N/A   Overcast
4:35 AM 42.1 °F 38.4 °F 35.8 °F 78% 29.86 in 10.0 mi NW 5.8 mph - N/A   Overcast
4:55 AM 41.9 °F 38.2 °F 36.1 °F 80% 29.88 in 10.0 mi NW 5.8 mph - N/A   Overcast
5:15 AM 41.7 °F 37.3 °F 36.1 °F 81% 29.90 in 10.0 mi NNW 6.9 mph - N/A   Overcast
5:35 AM 41.2 °F 35.5 °F 35.1 °F 79% 29.91 in 10.0 mi NNW 9.2 mph 17.3 mph N/A   Overcast
5:55 AM 40.6 °F 33.8 °F 33.4 °F 75% 29.93 in 10.0 mi North 11.5 mph 17.3 mph N/A   Overcast
6:15 AM 39.9 °F 37.8 °F 32.4 °F 74% 29.94 in 10.0 mi NNW 3.5 mph - N/A   Overcast
6:35 AM 39.7 °F 35.6 °F 32.7 °F 76% 29.94 in 10.0 mi North 5.8 mph - N/A   Mostly Cloudy
6:55 AM 40.1 °F 36.1 °F 33.8 °F 78% 29.94 in 10.0 mi North 5.8 mph - N/A   Mostly Cloudy
7:15 AM 39.6 °F 34.0 °F 33.6 °F 79% 29.96 in 10.0 mi North 8.1 mph - N/A   Mostly Cloudy
7:35 AM 39.7 °F 35.6 °F 33.6 °F 79% 29.96 in 10.0 mi North 5.8 mph - N/A   Overcast
7:55 AM 39.9 °F 34.5 °F 33.8 °F 79% 29.98 in 10.0 mi NNW 8.1 mph - N/A   Overcast
8:15 AM 40.1 °F 35.3 °F 34.2 °F 79% 29.98 in 10.0 mi NNW 6.9 mph - N/A   Overcast
8:35 AM 40.3 °F 35.5 °F 34.3 °F 79% 29.99 in 10.0 mi North 6.9 mph - N/A   Overcast
8:55 AM 41.0 °F 38.0 °F 34.9 °F 79% 29.99 in 10.0 mi North 4.6 mph - N/A   Overcast
9:15 AM 41.0 °F 38.0 °F 35.1 °F 79% 30.00 in 10.0 mi North 4.6 mph - N/A   Overcast
9:35 AM 40.8 °F 36.9 °F 34.5 °F 78% 30.01 in 10.0 mi North 5.8 mph - N/A   Overcast
9:55 AM 41.2 °F 37.3 °F 34.7 °F 78% 30.03 in 10.0 mi North 5.8 mph - N/A   Overcast
10:15 AM 41.7 °F 36.7 °F 35.1 °F 77% 30.00 in 10.0 mi North 8.1 mph - N/A   Overcast
10:35 AM 42.4 °F 38.8 °F 35.1 °F 75% 30.01 in 10.0 mi North 5.8 mph - N/A   Overcast
10:55 AM 42.4 °F 38.1 °F 34.7 °F 74% 30.02 in 10.0 mi North 6.9 mph - N/A   Overcast
11:15 AM 42.1 °F 37.1 °F 34.3 °F 74% 30.03 in 10.0 mi NNW 8.1 mph - N/A   Overcast
11:35 AM 42.3 °F 37.3 °F 34.7 °F 75% 30.03 in 10.0 mi NNW 8.1 mph - N/A   Overcast
11:55 AM 42.4 °F 38.8 °F 34.7 °F 74% 30.02 in 10.0 mi North 5.8 mph - N/A   Overcast
12:15 PM 42.4 °F 37.5 °F 33.6 °F 71% 30.02 in 10.0 mi North 8.1 mph - N/A   Overcast
12:35 PM 43.7 °F 39.7 °F 33.8 °F 68% 30.01 in 10.0 mi North 6.9 mph - N/A   Overcast
12:55 PM 43.3 °F 39.9 °F 33.1 °F 67% 30.01 in 10.0 mi NNE 5.8 mph - N/A   Overcast
1:15 PM 43.0 °F 41.3 °F 32.2 °F 66% 30.02 in 10.0 mi North 3.5 mph - N/A   Mostly Cloudy
1:35 PM 43.5 °F 40.1 °F 32.2 °F 64% 30.02 in 10.0 mi North 5.8 mph - N/A   Mostly Cloudy
1:55 PM 43.7 °F 39.7 °F 32.5 °F 65% 30.01 in 10.0 mi North 6.9 mph - N/A   Scattered Clouds
2:15 PM 43.0 °F 39.5 °F 33.8 °F 70% 30.00 in 10.0 mi North 5.8 mph - N/A   Overcast
2:35 PM 42.6 °F 40.9 °F 33.6 °F 70% 30.01 in 10.0 mi NE 3.5 mph - N/A   Mostly Cloudy
2:55 PM 42.6 °F 38.4 °F 34.0 °F 71% 30.00 in 10.0 mi North 6.9 mph - N/A   Scattered Clouds
3:15 PM 42.4 °F 38.1 °F 34.0 °F 72% 30.01 in 10.0 mi North 6.9 mph - N/A   Scattered Clouds
3:35 PM 42.8 °F 39.3 °F 33.8 °F 70% 30.00 in 10.0 mi NNE 5.8 mph - N/A   Clear
3:55 PM 42.1 °F - 33.8 °F 72% 30.02 in 10.0 mi Calm Calm - N/A   Clear
4:15 PM 42.1 °F 40.2 °F 34.0 °F 73% 30.02 in 10.0 mi North 3.5 mph - N/A   Clear
4:35 PM 41.9 °F - 33.8 °F 73% 30.02 in 10.0 mi Calm Calm - N/A   Clear
4:55 PM 41.5 °F - 33.4 °F 73% 30.02 in 10.0 mi Calm Calm - N/A   Clear
5:15 PM 40.8 °F - 33.8 °F 76% 30.03 in 10.0 mi Calm Calm - N/A   Clear
5:35 PM 40.6 °F - 33.8 °F 77% 30.04 in 10.0 mi Calm Calm - N/A   Clear
5:55 PM 39.6 °F - 34.2 °F 81% 30.04 in 10.0 mi Calm Calm - N/A   Clear
6:15 PM 39.2 °F - 34.3 °F 83% 30.04 in 10.0 mi Calm Calm - N/A   Clear
6:35 PM 39.0 °F - 34.2 °F 83% 30.05 in 10.0 mi Calm Calm - N/A   Clear
6:55 PM 38.7 °F - 34.3 °F 84% 30.04 in 10.0 mi Calm Calm - N/A   Clear
7:15 PM 39.2 °F - 34.2 °F 82% 30.03 in 10.0 mi Calm Calm - N/A   Clear
7:35 PM 39.0 °F 36.8 °F 33.8 °F 82% 30.05 in 10.0 mi SE 3.5 mph - N/A   Clear
7:55 PM 38.1 °F - 34.2 °F 86% 30.07 in 10.0 mi Calm Calm - N/A   Clear
8:15 PM 37.9 °F - 34.3 °F 87% 30.06 in 7.0 mi Calm Calm - N/A   Clear
8:35 PM 38.3 °F - 34.0 °F 84% 30.07 in 10.0 mi Calm Calm - N/A   Clear
8:55 PM 37.2 °F - 33.6 °F 87% 30.07 in 10.0 mi Calm Calm - N/A   Clear
9:15 PM 36.9 °F - 33.8 °F 89% 30.07 in 10.0 mi Calm Calm - N/A   Clear
9:35 PM 37.8 °F - 34.3 °F 87% 30.09 in 10.0 mi Calm Calm - N/A   Clear
9:55 PM 38.1 °F 35.7 °F 34.0 °F 85% 30.09 in 10.0 mi SSE 3.5 mph - N/A   Clear
10:15 PM 38.3 °F - 34.0 °F 84% 30.08 in 10.0 mi Calm Calm - N/A   Clear
10:35 PM 38.5 °F - 34.2 °F 84% 30.09 in 10.0 mi Calm Calm - N/A   Clear
10:55 PM 38.5 °F - 34.3 °F 85% 30.09 in 10.0 mi Calm Calm - N/A   Clear
11:15 PM 38.5 °F - 34.2 °F 84% 30.07 in 10.0 mi Calm Calm - N/A   Clear
11:35 PM 37.9 °F - 34.3 °F 87% 30.07 in 10.0 mi Calm Calm - N/A   Clear
11:55 PM 37.9 °F - 34.3 °F 87% 30.06 in 10.0 mi Calm Calm - N/A   Clear